This is the latest recevied weather packets stored in our database for station/object DL6DJ-15. If no packets are shown the sender has not sent any weather packets the latest 10 day(s).
| Time | Temp. | Humidity | Pressure | Rain* | Wind** | Luminosity | Snow |
|---|---|---|---|---|---|---|---|
| 1777619579 | 23.33° C | 17% | 1029.8 hPa | - | - | - | - |
| 1777619278 | 23.89° C | 18% | 1029.9 hPa | - | - | - | - |
| 1777618978 | 24.44° C | 16% | 1029.8 hPa | - | - | - | - |
| 1777618678 | 23.89° C | 18% | 1029.7 hPa | - | - | - | - |
| 1777618377 | 23.89° C | 18% | 1029.8 hPa | - | - | - | - |
| 1777618077 | 22.78° C | 18% | 1029.8 hPa | - | - | - | - |
| 1777617777 | 22.22° C | 20% | 1029.7 hPa | - | - | - | - |
| 1777617479 | 21.67° C | 19% | 1029.6 hPa | - | - | - | - |
| 1777617175 | 21.67° C | 20% | 1029.6 hPa | - | - | - | - |
| 1777616875 | 20.56° C | 21% | 1029.7 hPa | - | - | - | - |
| 1777616575 | 18.89° C | 23% | 1029.7 hPa | - | - | - | - |
| 1777616274 | 18.33° C | 24% | 1029.7 hPa | - | - | - | - |
| 1777615974 | 17.78° C | 24% | 1029.7 hPa | - | - | - | - |
| 1777615674 | 16.67° C | 26% | 1029.7 hPa | - | - | - | - |
| 1777615374 | 16.11° C | 26% | 1029.7 hPa | - | - | - | - |
| 1777615073 | 15.56° C | 28% | 1029.7 hPa | - | - | - | - |
| 1777614773 | 16.11° C | 25% | 1029.7 hPa | - | - | - | - |
| 1777614473 | 16.67° C | 25% | 1029.6 hPa | - | - | - | - |
| 1777614172 | 15.56° C | 27% | 1029.6 hPa | - | - | - | - |
| 1777613571 | 12.78° C | 32% | 1029.6 hPa | - | - | - | - |
| 1777613271 | 12.22° C | 33% | 1029.5 hPa | - | - | - | - |
| 1777612970 | 11.67° C | 34% | 1029.6 hPa | - | - | - | - |
| 1777612670 | 10.56° C | 35% | 1029.6 hPa | - | - | - | - |
| 1777612370 | 10° C | 39% | 1029.5 hPa | - | - | - | - |
| 1777612069 | 7.78° C | 44% | 1029.4 hPa | - | - | - | - |
* Rain since midnight (hover to see other rain measurements)
** Current wind speed in m/s (hover to see current wind gust speed)